createdAt,value
2022-12-11T00:01:19.076Z,82.78
2022-12-11T00:03:46.433Z,84.41
2022-12-11T00:06:15.727Z,86.56
2022-12-11T00:08:43.127Z,86.78
2022-12-11T00:11:16.959Z,85.82
2022-12-11T00:13:43.859Z,84.89
2022-12-11T00:16:10.991Z,83.63
2022-12-11T00:18:39.224Z,83.60
2022-12-11T00:21:08.096Z,84.09
2022-12-11T00:23:36.046Z,85.92
2022-12-11T00:26:07.264Z,82.95
2022-12-11T00:28:34.075Z,85.22
2022-12-11T00:31:05.716Z,83.14
2022-12-11T00:33:32.330Z,83.11
2022-12-11T00:35:59.274Z,83.42
2022-12-11T00:38:26.016Z,84.09
2022-12-11T00:40:52.692Z,84.21
2022-12-11T00:43:19.176Z,83.37
2022-12-11T00:45:48.075Z,84.05
2022-12-11T00:48:14.782Z,83.96
2022-12-11T00:50:41.443Z,84.16
2022-12-11T00:53:08.164Z,84.05
2022-12-11T00:55:42.267Z,84.32
2022-12-11T00:58:10.051Z,84.40
2022-12-11T01:00:37.109Z,85.36
2022-12-11T01:03:04.730Z,84.52
2022-12-11T01:05:31.742Z,83.94
2022-12-11T01:07:58.302Z,84.57
2022-12-11T01:10:25.086Z,84.93
2022-12-11T01:13:16.326Z,85.70
2022-12-11T01:15:45.292Z,85.02
2022-12-11T01:18:14.094Z,84.52
2022-12-11T01:20:42.782Z,84.91
2022-12-11T01:23:13.006Z,84.49
2022-12-11T01:25:40.541Z,85.13
2022-12-11T01:28:07.874Z,84.97
2022-12-11T01:30:35.859Z,85.10
2022-12-11T01:33:03.930Z,84.66
2022-12-11T01:35:30.465Z,84.82
2022-12-11T01:37:57.207Z,85.54
2022-12-11T01:40:24.066Z,85.93
2022-12-11T01:42:50.971Z,85.63
2022-12-11T01:45:38.931Z,85.18
2022-12-11T01:48:12.633Z,85.78
2022-12-11T01:50:50.680Z,86.01
2022-12-11T01:53:21.556Z,85.65
2022-12-11T01:55:50.268Z,85.98
2022-12-11T01:58:18.724Z,86.27
2022-12-11T02:00:45.446Z,86.23
2022-12-11T02:03:12.106Z,85.74
2022-12-11T02:05:39.083Z,85.32
2022-12-11T02:08:09.898Z,86.39
2022-12-11T02:10:54.937Z,85.94
2022-12-11T02:13:38.726Z,86.36
2022-12-11T02:16:17.064Z,86.96
2022-12-11T02:18:53.876Z,87.07
2022-12-11T02:21:33.686Z,87.13
2022-12-11T02:24:32.727Z,86.81
2022-12-11T02:27:28.713Z,86.37
2022-12-11T02:30:06.700Z,86.15
2022-12-11T02:33:02.907Z,86.41
2022-12-11T02:35:38.183Z,86.02
2022-12-11T02:38:10.729Z,86.38
2022-12-11T02:40:40.190Z,86.67
2022-12-11T02:43:10.133Z,86.17
2022-12-11T02:45:38.474Z,87.06
2022-12-11T02:48:07.820Z,87.12
2022-12-11T02:50:38.087Z,86.47
2022-12-11T02:53:06.879Z,86.27
2022-12-11T02:55:36.638Z,86.59
2022-12-11T02:58:12.459Z,86.48
2022-12-11T03:00:40.215Z,86.64
2022-12-11T03:03:06.911Z,87.24
2022-12-11T03:05:33.608Z,86.82
2022-12-11T03:08:00.202Z,87.31
2022-12-11T03:10:26.925Z,86.36
2022-12-11T03:12:57.780Z,85.74
2022-12-11T03:15:39.554Z,85.98
2022-12-11T03:18:15.753Z,85.93
2022-12-11T03:20:50.286Z,86.12
2022-12-11T03:23:43.480Z,86.09
2022-12-11T03:26:13.309Z,87.10
2022-12-11T03:29:10.524Z,86.01
2022-12-11T03:31:43.672Z,85.83
2022-12-11T03:34:18.701Z,85.86
2022-12-11T03:36:47.909Z,85.61
2022-12-11T03:39:22.735Z,85.98
2022-12-11T03:41:51.822Z,85.89
2022-12-11T03:44:20.894Z,85.72
2022-12-11T03:46:49.905Z,85.66
2022-12-11T03:49:20.056Z,85.65
2022-12-11T03:51:49.358Z,85.56
2022-12-11T03:54:17.410Z,85.36
2022-12-11T03:56:45.960Z,86.22
2022-12-11T03:59:13.208Z,85.41
2022-12-11T04:01:40.021Z,85.64
2022-12-11T04:04:06.591Z,85.72
2022-12-11T04:06:33.232Z,85.99
2022-12-11T04:08:59.832Z,85.75
2022-12-11T04:11:35.416Z,85.21
2022-12-11T04:14:26.951Z,85.20
2022-12-11T04:16:54.592Z,85.40
2022-12-11T04:19:40.027Z,85.16
2022-12-11T04:22:25.110Z,85.27
2022-12-11T04:24:52.735Z,85.35
2022-12-11T04:27:38.680Z,85.48
2022-12-11T04:30:07.937Z,85.13
2022-12-11T04:32:34.594Z,85.38
2022-12-11T04:35:01.338Z,85.37
2022-12-11T04:37:28.994Z,85.32
2022-12-11T04:39:55.815Z,85.34
2022-12-11T04:42:22.617Z,85.06
2022-12-11T04:44:49.167Z,85.57
2022-12-11T04:47:15.776Z,85.28
2022-12-11T04:49:42.431Z,85.41
2022-12-11T04:52:09.272Z,85.53
2022-12-11T04:54:35.806Z,85.28
2022-12-11T04:57:02.409Z,85.23
2022-12-11T04:59:28.967Z,85.37
2022-12-11T05:01:55.572Z,85.14
2022-12-11T05:04:22.151Z,84.89
2022-12-11T05:06:50.168Z,85.19
2022-12-11T05:09:16.998Z,85.51
2022-12-11T05:11:43.528Z,85.63
2022-12-11T05:14:10.072Z,85.29
2022-12-11T05:16:36.539Z,85.15
2022-12-11T05:19:03.483Z,86.13
2022-12-11T05:21:34.804Z,85.30
2022-12-11T05:24:01.949Z,85.30
2022-12-11T05:26:28.947Z,84.77
2022-12-11T05:28:56.070Z,84.87
2022-12-11T05:31:26.069Z,85.20
2022-12-11T05:33:53.319Z,85.16
2022-12-11T05:36:24.280Z,85.19
2022-12-11T05:38:51.889Z,85.43
2022-12-11T05:41:21.593Z,84.79
2022-12-11T05:43:48.746Z,85.05
2022-12-11T05:46:18.802Z,84.85
2022-12-11T05:48:47.842Z,84.92
2022-12-11T05:51:15.847Z,85.27
2022-12-11T05:53:43.844Z,85.11
2022-12-11T05:56:20.508Z,85.76
2022-12-11T05:58:48.338Z,85.55
2022-12-11T06:01:19.444Z,85.51
2022-12-11T06:03:46.191Z,85.14
2022-12-11T06:06:12.803Z,85.48
2022-12-11T06:08:39.555Z,85.28
2022-12-11T06:11:06.805Z,84.92
2022-12-11T06:13:33.649Z,84.60
2022-12-11T06:16:02.825Z,84.78
2022-12-11T06:18:35.198Z,84.74
2022-12-11T06:21:02.008Z,85.02
2022-12-11T06:23:28.665Z,85.39
2022-12-11T06:25:55.236Z,85.19
2022-12-11T06:28:21.816Z,84.56
2022-12-11T06:30:48.403Z,84.42
2022-12-11T06:33:15.033Z,84.52
2022-12-11T06:35:42.425Z,84.78
2022-12-11T06:38:10.879Z,84.79
2022-12-11T06:40:38.240Z,84.65
2022-12-11T06:43:04.924Z,84.49
2022-12-11T06:45:31.558Z,85.07
2022-12-11T06:47:58.861Z,84.63
2022-12-11T06:50:25.735Z,84.93
2022-12-11T06:52:52.246Z,84.45
2022-12-11T06:55:18.919Z,84.88
2022-12-11T06:57:45.472Z,84.58
2022-12-11T07:00:12.614Z,84.81
2022-12-11T07:02:39.294Z,84.63
2022-12-11T07:05:06.377Z,84.75
2022-12-11T07:07:32.903Z,84.78
2022-12-11T07:10:07.305Z,84.60
2022-12-11T07:12:34.795Z,84.52
2022-12-11T07:15:01.589Z,84.46
2022-12-11T07:17:29.750Z,84.52
2022-12-11T07:19:56.336Z,84.41
2022-12-11T07:22:23.055Z,84.52
2022-12-11T07:24:49.633Z,84.69
2022-12-11T07:27:16.157Z,84.45
2022-12-11T07:29:42.681Z,84.71
2022-12-11T07:32:09.337Z,84.13
2022-12-11T07:34:36.068Z,84.30
2022-12-11T07:37:02.678Z,84.68
2022-12-11T07:39:29.319Z,84.63
2022-12-11T07:41:55.895Z,85.46
2022-12-11T07:44:22.468Z,85.54
2022-12-11T07:46:49.188Z,84.27
2022-12-11T07:49:15.750Z,85.95
2022-12-11T07:51:43.177Z,86.20
2022-12-11T07:54:16.682Z,86.86
2022-12-11T07:56:49.794Z,86.81
2022-12-11T07:59:19.558Z,88.26
2022-12-11T08:01:46.154Z,86.44
2022-12-11T08:04:15.719Z,85.90
2022-12-11T08:06:42.595Z,88.36
2022-12-11T08:09:15.964Z,88.76
2022-12-11T08:11:51.640Z,83.99
2022-12-11T08:14:19.495Z,87.17
2022-12-11T08:16:46.089Z,86.82
2022-12-11T08:19:13.340Z,87.91
2022-12-11T08:21:40.421Z,88.98
2022-12-11T08:24:08.033Z,88.64
2022-12-11T08:26:34.939Z,88.52
2022-12-11T08:29:02.763Z,88.61
2022-12-11T08:31:30.217Z,89.04
2022-12-11T08:33:56.961Z,87.03
2022-12-11T08:36:24.146Z,88.72
2022-12-11T08:38:51.286Z,88.41
2022-12-11T08:41:38.044Z,88.63
2022-12-11T08:44:06.096Z,88.26
2022-12-11T08:46:33.713Z,85.95
2022-12-11T08:49:00.534Z,88.37
2022-12-11T08:51:28.699Z,87.41
2022-12-11T08:53:57.271Z,87.76
2022-12-11T08:56:24.744Z,87.98
2022-12-11T08:58:51.502Z,86.50
2022-12-11T09:01:24.803Z,85.45
2022-12-11T09:03:53.207Z,87.60
2022-12-11T09:06:22.095Z,86.89
2022-12-11T09:08:53.000Z,86.65
2022-12-11T09:11:23.281Z,86.07
2022-12-11T09:13:50.224Z,86.70
2022-12-11T09:16:20.066Z,86.82
2022-12-11T09:18:48.588Z,86.61
2022-12-11T09:21:18.018Z,85.12
2022-12-11T09:23:44.755Z,82.71
2022-12-11T09:26:13.706Z,81.26
2022-12-11T09:28:45.751Z,84.86
2022-12-11T09:31:17.825Z,80.22
2022-12-11T09:33:44.726Z,79.81
2022-12-11T09:36:12.360Z,81.55
2022-12-11T09:38:39.448Z,82.49
2022-12-11T09:41:23.670Z,78.71
2022-12-11T09:44:01.968Z,80.45
2022-12-11T09:46:33.678Z,79.48
2022-12-11T09:49:03.418Z,79.29
2022-12-11T09:51:37.752Z,80.53
2022-12-11T09:54:05.238Z,81.35
2022-12-11T09:56:43.109Z,80.57
2022-12-11T09:59:32.110Z,79.52
2022-12-11T10:02:23.245Z,81.43
2022-12-11T10:05:29.436Z,78.54
2022-12-11T10:08:16.173Z,81.67
2022-12-11T10:10:51.638Z,80.13
2022-12-11T10:13:38.413Z,83.46
2022-12-11T10:16:22.722Z,79.54
2022-12-11T10:18:49.599Z,81.37
2022-12-11T10:21:18.583Z,83.28
2022-12-11T10:23:58.494Z,81.04
2022-12-11T10:26:25.050Z,79.36
2022-12-11T10:28:52.075Z,77.85
2022-12-11T10:31:45.120Z,77.74
2022-12-11T10:34:43.464Z,77.24
2022-12-11T10:37:10.316Z,79.30
2022-12-11T10:39:37.269Z,79.90
2022-12-11T10:42:18.352Z,78.66
2022-12-11T10:44:58.297Z,78.21
2022-12-11T10:47:25.290Z,79.86
2022-12-11T10:49:56.816Z,79.72
2022-12-11T10:52:27.296Z,79.62
2022-12-11T10:55:02.380Z,78.48
2022-12-11T10:57:33.623Z,79.37
2022-12-11T11:00:00.871Z,79.83
2022-12-11T11:02:38.879Z,78.23
2022-12-11T11:05:14.865Z,77.08
2022-12-11T11:07:49.562Z,78.45
2022-12-11T11:10:18.959Z,77.65
2022-12-11T11:12:50.139Z,76.22
2022-12-11T11:15:24.384Z,77.96
2022-12-11T11:17:55.787Z,80.74
2022-12-11T11:20:29.255Z,81.10
2022-12-11T11:23:00.853Z,81.80
2022-12-11T11:25:30.242Z,77.85
2022-12-11T11:28:36.091Z,78.01
2022-12-11T11:31:06.570Z,78.79
2022-12-11T11:33:35.532Z,81.00
2022-12-11T11:36:08.048Z,80.14
2022-12-11T11:38:50.806Z,79.51
2022-12-11T11:41:24.156Z,79.20
2022-12-11T11:43:59.132Z,79.28
2022-12-11T11:46:49.383Z,77.91
2022-12-11T11:49:30.216Z,80.67
2022-12-11T11:52:03.839Z,78.71
2022-12-11T11:54:35.748Z,80.88
2022-12-11T11:57:13.626Z,76.35
2022-12-11T11:59:45.342Z,80.46
2022-12-11T12:02:16.902Z,80.15
2022-12-11T12:04:44.950Z,79.84
2022-12-11T12:07:48.198Z,77.21
2022-12-11T12:10:26.455Z,78.49
2022-12-11T12:13:48.695Z,78.77
2022-12-11T12:16:52.290Z,78.91
2022-12-11T12:19:44.041Z,80.94
2022-12-11T12:22:48.699Z,80.34
2022-12-11T12:25:45.488Z,81.42
2022-12-11T12:28:22.313Z,81.24
2022-12-11T12:31:32.017Z,81.08
2022-12-11T12:34:17.027Z,81.43
2022-12-11T12:40:19.577Z,80.54
2022-12-11T12:46:51.516Z,80.07
2022-12-11T12:49:41.642Z,80.40
2022-12-11T12:52:21.229Z,79.20
2022-12-11T12:55:09.561Z,79.15
2022-12-11T12:57:38.754Z,79.81
2022-12-11T13:00:12.812Z,78.98
2022-12-11T13:02:51.045Z,79.91
2022-12-11T13:05:29.464Z,80.02
2022-12-11T13:07:59.717Z,80.12
2022-12-11T13:10:38.057Z,79.61
2022-12-11T13:13:06.706Z,79.58
2022-12-11T13:15:43.754Z,79.47
2022-12-11T13:18:38.013Z,78.93
2022-12-11T13:21:40.509Z,79.10
2022-12-11T13:24:13.228Z,79.23
2022-12-11T13:26:40.714Z,79.58
2022-12-11T13:29:32.746Z,78.70
2022-12-11T13:32:21.999Z,78.84
2022-12-11T13:34:56.582Z,77.45
2022-12-11T13:37:47.437Z,76.16
2022-12-11T13:40:25.851Z,76.20
2022-12-11T13:42:59.692Z,77.08
2022-12-11T13:45:47.645Z,76.58
2022-12-11T13:48:27.877Z,77.72
2022-12-11T13:50:56.778Z,78.40
2022-12-11T13:53:23.575Z,78.87
2022-12-11T13:56:06.629Z,78.92
2022-12-11T13:58:39.190Z,78.24
2022-12-11T14:01:12.931Z,76.96
2022-12-11T14:03:52.992Z,77.29
2022-12-11T14:06:19.779Z,78.20
2022-12-11T14:08:50.237Z,77.38
2022-12-11T14:11:24.344Z,75.25
2022-12-11T14:13:50.952Z,76.88
2022-12-11T14:16:23.487Z,77.90
2022-12-11T14:18:52.169Z,77.91
2022-12-11T14:21:24.417Z,76.99
2022-12-11T14:23:58.180Z,77.83
2022-12-11T14:26:28.688Z,77.82
2022-12-11T14:28:55.590Z,77.72
2022-12-11T14:31:37.739Z,77.24
2022-12-11T14:34:13.954Z,77.14
2022-12-11T14:36:42.058Z,77.06
2022-12-11T14:39:16.865Z,76.87
2022-12-11T14:41:52.820Z,76.84
2022-12-11T14:44:22.511Z,77.48
2022-12-11T14:46:54.649Z,78.17
2022-12-11T14:49:32.227Z,77.45
2022-12-11T14:52:00.179Z,76.62
2022-12-11T14:54:37.644Z,76.05
2022-12-11T14:57:06.735Z,77.33
2022-12-11T14:59:44.001Z,77.54
2022-12-11T15:02:45.712Z,77.22
2022-12-11T15:05:18.068Z,77.42
2022-12-11T15:07:57.631Z,76.32
2022-12-11T15:10:30.527Z,76.01
2022-12-11T15:12:58.175Z,76.57
2022-12-11T15:15:25.495Z,76.56
2022-12-11T15:17:52.993Z,77.47
2022-12-11T15:20:28.268Z,77.26
2022-12-11T15:22:59.089Z,76.78
2022-12-11T15:25:29.427Z,76.52
2022-12-11T15:27:59.038Z,75.99
2022-12-11T15:30:32.684Z,76.31
2022-12-11T15:33:09.308Z,77.14
2022-12-11T15:35:36.943Z,76.62
2022-12-11T15:38:03.666Z,77.49
2022-12-11T15:40:30.589Z,77.67
2022-12-11T15:42:57.920Z,77.50
2022-12-11T15:45:29.934Z,77.51
2022-12-11T15:47:57.179Z,77.52
2022-12-11T15:50:28.610Z,76.27
2022-12-11T15:52:56.796Z,76.79
2022-12-11T15:55:26.509Z,76.26
2022-12-11T15:58:18.817Z,75.76
2022-12-11T16:00:46.497Z,76.44
2022-12-11T16:03:15.089Z,75.97
2022-12-11T16:05:42.799Z,76.07
2022-12-11T16:08:18.893Z,75.79
2022-12-11T16:10:46.274Z,74.89
2022-12-11T16:13:13.499Z,75.97
2022-12-11T16:15:43.497Z,76.30
2022-12-11T16:18:13.384Z,76.11
2022-12-11T16:20:41.085Z,75.67
2022-12-11T16:23:08.354Z,76.02
2022-12-11T16:25:40.856Z,75.61
2022-12-11T16:28:08.666Z,74.13
2022-12-11T16:30:37.093Z,75.41
2022-12-11T16:33:11.715Z,75.06
2022-12-11T16:35:39.357Z,75.16
2022-12-11T16:38:05.906Z,75.44
2022-12-11T16:40:32.505Z,75.89
2022-12-11T16:42:59.221Z,75.23
2022-12-11T16:45:26.526Z,75.13
2022-12-11T16:47:53.652Z,74.86
2022-12-11T16:50:20.873Z,75.08
2022-12-11T16:52:47.475Z,74.49
2022-12-11T16:55:15.641Z,74.58
2022-12-11T16:57:42.325Z,75.97
2022-12-11T17:00:12.441Z,76.20
2022-12-11T17:02:39.552Z,75.18
2022-12-11T17:05:06.513Z,76.28
2022-12-11T17:07:33.326Z,75.34
2022-12-11T17:10:01.885Z,75.12
2022-12-11T17:12:28.960Z,74.84
2022-12-11T17:14:56.445Z,74.74
2022-12-11T17:17:23.181Z,75.43
2022-12-11T17:19:49.782Z,75.03
2022-12-11T17:22:16.588Z,75.07
2022-12-11T17:24:43.313Z,74.70
2022-12-11T17:27:09.933Z,74.32
2022-12-11T17:29:36.566Z,74.99
2022-12-11T17:32:03.408Z,76.26
2022-12-11T17:34:36.045Z,75.08
2022-12-11T17:37:06.221Z,75.42
2022-12-11T17:39:33.220Z,75.31
2022-12-11T17:42:00.077Z,74.55
2022-12-11T17:44:30.319Z,75.12
2022-12-11T17:46:58.106Z,75.16
2022-12-11T17:49:24.946Z,74.93
2022-12-11T17:51:53.225Z,74.85
2022-12-11T17:54:20.234Z,74.99
2022-12-11T17:56:46.904Z,75.04
2022-12-11T17:59:13.513Z,75.02
2022-12-11T18:01:40.199Z,75.61
2022-12-11T18:04:06.848Z,76.01
2022-12-11T18:06:33.674Z,75.30
2022-12-11T18:09:00.224Z,75.87
2022-12-11T18:11:26.686Z,75.25
2022-12-11T18:13:53.938Z,75.37
2022-12-11T18:16:28.899Z,75.13
2022-12-11T18:18:56.642Z,75.61
2022-12-11T18:21:29.535Z,75.41
2022-12-11T18:23:56.630Z,75.96
2022-12-11T18:26:23.704Z,76.30
2022-12-11T18:28:51.538Z,75.46
2022-12-11T18:31:19.912Z,75.29
2022-12-11T18:33:47.421Z,75.70
2022-12-11T18:36:15.813Z,75.52
2022-12-11T18:38:42.770Z,75.44
2022-12-11T18:41:11.809Z,75.62
2022-12-11T18:43:38.600Z,75.96
2022-12-11T18:46:10.342Z,76.20
2022-12-11T18:48:37.416Z,75.44
2022-12-11T18:51:09.451Z,75.48
2022-12-11T18:53:39.202Z,75.58
2022-12-11T18:56:12.708Z,74.50
2022-12-11T18:58:39.838Z,75.21
2022-12-11T19:01:08.361Z,73.45
2022-12-11T19:03:35.124Z,74.47
2022-12-11T19:06:11.623Z,74.22
2022-12-11T19:08:38.785Z,73.77
2022-12-11T19:11:05.916Z,74.65
2022-12-11T19:13:33.290Z,74.70
2022-12-11T19:16:00.127Z,72.26
2022-12-11T19:18:26.874Z,71.93
2022-12-11T19:21:03.272Z,71.58
2022-12-11T19:23:33.257Z,73.21
2022-12-11T19:25:59.948Z,74.13
2022-12-11T19:28:26.435Z,73.29
2022-12-11T19:30:52.965Z,72.89
2022-12-11T19:33:19.543Z,72.17
2022-12-11T19:35:46.071Z,71.36
2022-12-11T19:38:13.063Z,69.69
2022-12-11T19:40:44.547Z,70.93
2022-12-11T19:43:11.771Z,70.81
2022-12-11T19:45:38.607Z,71.21
2022-12-11T19:48:05.804Z,71.18
2022-12-11T19:50:34.553Z,71.68
2022-12-11T19:53:01.139Z,72.54
2022-12-11T19:55:27.736Z,71.15
2022-12-11T19:57:55.552Z,72.27
2022-12-11T20:00:22.154Z,69.86
2022-12-11T20:02:49.151Z,70.68
2022-12-11T20:05:16.319Z,70.82
2022-12-11T20:07:45.672Z,70.65
2022-12-11T20:10:12.650Z,70.36
2022-12-11T20:12:39.371Z,70.52
2022-12-11T20:15:06.406Z,70.47
2022-12-11T20:17:33.422Z,70.68
2022-12-11T20:20:00.205Z,70.40
2022-12-11T20:22:26.911Z,70.35
2022-12-11T20:24:53.610Z,69.50
2022-12-11T20:27:20.152Z,70.73
2022-12-11T20:29:46.760Z,70.14
2022-12-11T20:32:13.431Z,71.01
2022-12-11T20:34:40.110Z,71.38
2022-12-11T20:37:07.824Z,71.50
2022-12-11T20:39:35.310Z,71.29
2022-12-11T20:42:05.047Z,72.29
2022-12-11T20:44:32.522Z,72.53
2022-12-11T20:46:59.295Z,72.26
2022-12-11T20:49:26.121Z,71.87
2022-12-11T20:51:52.702Z,72.26
2022-12-11T20:54:19.351Z,71.50
2022-12-11T20:56:45.878Z,70.67
2022-12-11T20:59:13.365Z,71.11
2022-12-11T21:01:40.829Z,70.93
2022-12-11T21:04:07.455Z,71.05
2022-12-11T21:06:36.399Z,70.61
2022-12-11T21:09:09.636Z,70.44
2022-12-11T21:11:36.227Z,70.36
2022-12-11T21:14:03.595Z,69.59
2022-12-11T21:16:30.727Z,69.79
2022-12-11T21:18:57.546Z,69.87
2022-12-11T21:21:24.887Z,69.80
2022-12-11T21:23:51.565Z,69.56
2022-12-11T21:26:19.897Z,69.84
2022-12-11T21:28:46.552Z,69.55
2022-12-11T21:31:15.592Z,69.43
2022-12-11T21:33:42.267Z,68.57
2022-12-11T21:36:11.514Z,68.76
2022-12-11T21:38:38.759Z,68.84
2022-12-11T21:41:15.719Z,69.89
2022-12-11T21:44:19.249Z,69.56
2022-12-11T21:46:30.789Z,70.02
2022-12-11T21:48:57.367Z,69.58
2022-12-11T21:51:37.117Z,70.21
2022-12-11T21:54:06.990Z,70.14
2022-12-11T21:56:33.892Z,68.83
2022-12-11T21:59:01.639Z,68.67
2022-12-11T22:01:32.326Z,68.21
2022-12-11T22:03:59.222Z,69.59
2022-12-11T22:06:25.865Z,70.15
2022-12-11T22:08:52.563Z,71.05
2022-12-11T22:11:22.687Z,71.13
2022-12-11T22:13:49.377Z,68.04
2022-12-11T22:16:16.303Z,68.23
2022-12-11T22:18:43.117Z,68.42
2022-12-11T22:21:09.827Z,68.09
2022-12-11T22:23:37.948Z,67.43
2022-12-11T22:26:04.548Z,68.59
2022-12-11T22:28:31.042Z,70.40
2022-12-11T22:30:57.803Z,68.70
2022-12-11T22:33:24.680Z,68.38
2022-12-11T22:35:59.102Z,70.43
2022-12-11T22:38:26.350Z,70.96
2022-12-11T22:40:54.186Z,69.35
2022-12-11T22:43:20.993Z,70.16
2022-12-11T22:45:47.603Z,70.42
2022-12-11T22:48:14.181Z,68.93
2022-12-11T22:50:41.627Z,69.52
2022-12-11T22:53:08.374Z,70.14
2022-12-11T22:55:38.842Z,71.02
2022-12-11T22:58:05.764Z,70.86
2022-12-11T23:00:32.400Z,69.61
2022-12-11T23:02:59.090Z,71.75
2022-12-11T23:05:25.775Z,70.48
2022-12-11T23:07:52.410Z,70.34
2022-12-11T23:10:19.578Z,71.19
2022-12-11T23:12:46.231Z,70.76
2022-12-11T23:15:13.535Z,67.34
2022-12-11T23:17:40.189Z,68.67
2022-12-11T23:20:07.344Z,69.08
2022-12-11T23:22:34.156Z,69.92
2022-12-11T23:25:01.088Z,70.28
2022-12-11T23:27:27.759Z,68.46
2022-12-11T23:29:55.151Z,69.22
2022-12-11T23:32:21.574Z,69.57
2022-12-11T23:34:48.176Z,69.23
2022-12-11T23:37:15.467Z,69.49
2022-12-11T23:39:42.002Z,69.47
2022-12-11T23:42:09.432Z,68.96
2022-12-11T23:44:36.055Z,67.57
2022-12-11T23:47:02.837Z,68.36
2022-12-11T23:49:29.534Z,69.57
2022-12-11T23:51:56.202Z,70.17
2022-12-11T23:54:22.951Z,71.24
2022-12-11T23:56:49.699Z,71.15
2022-12-11T23:59:16.263Z,70.59
